Tiempo atmosférico en la estación meteorológica de La Puebla De Los Infantes, Sevilla (200 m.)



Fecha
DESCASC
Temp. máxima en grados centígrados (hora)
DESCASC
Temp. mínima en grados centígrados (hora)
DESCASC
Temp. media en grados centígrados
DESCASC
Racha de viento máxima en m/sg (hora)
DESCASC
Velocidad máxima media en intervalos de 10 minutos(hora)
DESCASC
Precipitaciones diarias en mm
DESCASC
Precipitaciones de 00:00 a 06:00 en mm
DESCASC
Precipitaciones de 06:00 a 12:00 en mm
DESCASC
Precipitaciones de 12:00 a 18:00 en mm
DESCASC
Precipitaciones de 18:00 a 24:00 en mm
DESCASC
11-08-2020 32.4 (18:20) 20.8 (06:50) 26.6 10.56 (17:50) 6.39 (20:30) 0 0 0 0 0
10-08-2020 -- (--) -- (--) -- -- (--) -- (--) -- 0 -- -- --
09-08-2020 38.2 (15:40) 17.1 (07:40) 27.7 8.89 (18:00) 5.28 (18:00) 0 0 0 0 0
08-08-2020 39.8 (18:10) 23.8 (03:30) 31.8 7.5 (17:10) 4.17 (17:10) 0 0 0 0 0
07-08-2020 37.5 (17:40) 18.2 (00:00) 27.9 8.06 (15:30) 3.89 (16:40) 0 0 0 0 0
06-08-2020 40.3 (17:30) 17.2 (07:40) 28.8 9.44 (14:20) 5.83 (20:50) 0 0 0 0 0
05-08-2020 38.9 (17:20) 19.4 (00:00) 29.2 7.78 (17:30) 4.72 (18:00) 0 0 0 0 0
04-08-2020 36.6 (18:10) 16.9 (07:50) 26.7 6.39 (17:40) 3.33 (16:20) 0 0 0 0 0
03-08-2020 36.8 (19:10) 15.9 (07:40) 26.3 8.89 (18:40) 5.56 (21:00) 0 0 0 0 0
02-08-2020 39.6 (17:00) 20.5 (02:40) 30 14.72 (15:10) 6.11 (18:20) 0 0 0 0 0
01-08-2020 43.3 (18:20) 20.4 (00:00) 31.8 10.56 (18:50) 4.17 (17:40) 0 0 0 0 0
31-07-2020 39 (17:20) 18.4 (07:40) 28.7 8.33 (16:20) 4.44 (16:40) 0 0 0 0 0
30-07-2020 38.3 (17:50) 20.6 (00:00) 29.4 9.72 (19:10) 5.28 (16:40) 0 0 0 0 0
29-07-2020 39 (19:00) 16.7 (00:00) 27.9 6.67 (16:30) 3.89 (16:40) 0 0 0 0 0
28-07-2020 39.3 (18:10) 17.8 (07:40) 28.5 9.17 (16:40) 5 (19:50) 0 0 0 0 0
27-07-2020 37 (17:50) 19.3 (00:00) 28.1 10.28 (17:20) 6.11 (19:00) 0 0 0 0 0
26-07-2020 42.8 (17:10) 17 (00:00) 29.9 6.11 (18:30) 3.33 (15:40) 0 0 0 0 0
25-07-2020 40.7 (16:50) 17.5 (07:40) 29.1 7.5 (17:00) 3.89 (17:00) 0 0 0 0 0
24-07-2020 39.8 (17:40) 19 (00:00) 29.4 8.89 (18:40) 5.28 (20:10) 0 0 0 0 0
23-07-2020 39.1 (17:50) 19.1 (00:00) 29.1 8.89 (21:10) 5.56 (21:10) 0 0 0 0 0
22-07-2020 35 (17:20) 20 (07:30) 27.5 7.5 (03:00) 4.44 (03:10) 0 0 0 0 0
21-07-2020 -- (--) -- (--) -- -- (--) -- (--) -- 0 -- -- --
20-07-2020 41 (17:10) 16.7 (07:10) 28.9 8.33 (13:40) 4.72 (20:50) 0 0 0 0 0
19-07-2020 38.4 (18:00) 19.1 (00:00) 28.8 8.61 (17:20) 5 (20:50) 0 0 0 0 0
18-07-2020 37.5 (17:20) 19.4 (00:00) 28.4 10.28 (20:10) 6.39 (18:20) 0 0 0 0 0
17-07-2020 40.5 (18:00) 17.5 (00:00) 29 8.06 (21:40) 4.72 (21:50) 0 0 0 0 0
16-07-2020 39.2 (18:40) 18.3 (00:00) 28.8 8.61 (14:00) 4.17 (14:40) 0 0 0 0 0
15-07-2020 37.5 (17:50) 17.7 (07:30) 27.6 8.33 (13:20) 4.72 (11:20) 0 0 0 0 0

Gráficas

Temp. máximas Temp. mínimas Temp. medias Precipitaciones Rachas de viento máximas Velocidades máximas media en intervalos de 10 minutos

Datos horarios

Fecha y hora oficial Temperatura (ºC) Velocidad del viento (km/h) Dirección del viento Racha (km/h) Dirección de racha Precipitación (mm) Presión (hPa) Tendencia (hPa) Humedad (%)
2020-08-13 23:00:00 26.3 14 Sudoeste 21 Sudoeste 0 -- -- 61
2020-08-13 22:00:00 28.3 13 Sudoeste 26 Sudoeste 0 -- -- 52
2020-08-13 21:00:00 30.4 8 Sudoeste 18 Sudoeste 0 -- -- 34
2020-08-13 20:00:00 32.5 8 Sudoeste 18 Sudoeste 0 -- -- 30
2020-08-13 19:00:00 33.5 9 Sudoeste 28 Sur 0 -- -- 28
2020-08-13 18:00:00 33.6 8 Sur 25 Sur 0 -- -- 31
2020-08-13 17:00:00 33 10 Sur 22 Sur 0 -- -- 33
2020-08-13 16:00:00 32.5 9 Sudoeste 15 Sudoeste 0 -- -- 36
2020-08-13 15:00:00 30.8 8 Oeste 17 Sur 0 -- -- 39
2020-08-13 14:00:00 29.6 7 Sur 17 Sur 0 -- -- 46
2020-08-13 13:00:00 28.5 7 Sudeste 15 Sur 0 -- -- 52
2020-08-13 12:00:00 26.4 5 Sudeste 11 Sur 0 -- -- 58
2020-08-13 11:00:00 24 5 Sudeste 11 Sur 0 -- -- 68
2020-08-13 10:00:00 -- -- -- -- -- -- -- -- --
2020-08-13 09:00:00 18.6 2 Este 5 Este 0 -- -- 88
2020-08-13 08:00:00 16.7 0 Calma 3 Norte 0 -- -- 90
2020-08-13 07:00:00 15 0 Calma 3 Noroeste 0 -- -- 91
2020-08-13 06:00:00 14.6 4 Noroeste 5 Noroeste 0 -- -- 90
2020-08-13 05:00:00 15.3 0 Calma 4 Noroeste 0 -- -- 85
2020-08-13 04:00:00 16.3 5 Noroeste 6 Noroeste 0 -- -- 86
2020-08-13 03:00:00 18 2 Norte 7 Sudoeste 0 -- -- 81
2020-08-13 02:00:00 20 6 Oeste 11 Sudoeste 0 -- -- 76
2020-08-13 01:00:00 21.2 6 Sudoeste 11 Sudoeste 0 -- -- 72
2020-08-13 00:00:00 22.4 6 Sudoeste 18 Sudoeste 0 -- -- 68
2020-08-12 23:00:00 23.5 9 Sudoeste 21 Oeste 0 -- -- 65
2020-08-12 22:00:00 25.1 11 Sudoeste 27 Sudoeste 0 -- -- 59
2020-08-12 21:00:00 27.2 12 Sudoeste 23 Sudoeste 0 -- -- 49
2020-08-12 20:00:00 29.5 11 Sudoeste 24 Sur 0 -- -- 42
2020-08-12 19:00:00 30.1 13 Sudoeste 29 Oeste 0 -- -- 38
2020-08-12 18:00:00 30.1 14 Sudoeste 31 Sudoeste 0 -- -- 42
2020-08-12 17:00:00 29.6 14 Sudoeste 29 Sudoeste 0 -- -- 44
2020-08-12 16:00:00 29.3 13 Sudoeste 30 Sur 0 -- -- 44
2020-08-12 15:00:00 28.7 12 Sudoeste 33 Sudoeste 0 -- -- 46
2020-08-12 14:00:00 27.5 14 Sur 28 Sudoeste 0 -- -- 48
2020-08-12 13:00:00 26.4 11 Sudoeste 25 Sudoeste 0 -- -- 54
2020-08-12 12:00:00 24.1 9 Sudoeste 24 Sudoeste 0 -- -- 65
2020-08-12 11:00:00 22.8 11 Sudoeste 24 Sudoeste 0 -- -- 72
2020-08-12 10:00:00 20.6 7 Sudoeste 13 Sudoeste 0 -- -- 84
2020-08-12 09:00:00 20.1 4 Sur 9 Sur 0 -- -- 86
2020-08-12 08:00:00 19.6 4 Sudoeste 13 Sudoeste 0 -- -- 89
2020-08-12 07:00:00 19.6 5 Sudoeste 10 Sur 0 -- -- 90
2020-08-12 06:00:00 18.8 4 Sur 11 Sur 0 -- -- 92
2020-08-12 05:00:00 17.7 4 Este 6 Este 0 -- -- 94
2020-08-12 04:00:00 16.8 0 Calma 9 Sudoeste 0 -- -- 89
2020-08-12 03:00:00 17.7 4 Oeste 10 Sudoeste 0 -- -- 88
2020-08-12 02:00:00 19.1 3 Sudeste 9 Sudeste 0 -- -- 86
2020-08-12 01:00:00 19.9 5 Nordeste 14 Este 0 -- -- 82
2020-08-12 00:00:00 20.9 7 Este 15 Este 0 -- -- 78
2020-08-11 23:00:00 22.1 9 Sur 13 Sur 0 -- -- 71
2020-08-11 22:00:00 22.5 4 Sudoeste 12 Sudeste 0 -- -- 77
2020-08-11 21:00:00 25 13 Sudeste 31 Este 0 -- -- 73
2020-08-11 20:00:00 27.1 13 Sudeste 25 Sudeste 0 -- -- 61
2020-08-11 19:00:00 27.6 12 Este 32 Sudoeste 0 -- -- 59
2020-08-11 18:00:00 32.2 20 Sudoeste 38 Sudoeste 0 -- -- 42
2020-08-11 17:00:00 29.7 14 Sudoeste 26 Sudoeste 0 -- -- 62
2020-08-11 16:00:00 25.7 7 Sudeste 19 Sur 0 -- -- 92
2020-08-11 15:00:00 23.9 11 Sur 20 Sur 0 -- -- 88
2020-08-11 14:00:00 27.3 5 Sur 18 Sur 0 -- -- 72
2020-08-11 13:00:00 30.3 10 Sudoeste 24 Sudeste 0 -- -- 49
2020-08-11 12:00:00 29.9 7 Sur 14 Sur 0 -- -- 51
2020-08-11 11:00:00 27 3 Sur 12 Noroeste 0 -- -- 61
2020-08-11 10:00:00 24.7 2 Este 4 Sudeste 0 -- -- 69
2020-08-11 09:00:00 22.3 3 Sur 7 Nordeste 0 -- -- 78
2020-08-11 08:00:00 21.1 0 Calma 6 Noroeste 0 -- -- 74
2020-08-11 07:00:00 20.8 3 Oeste 3 Oeste 0 -- -- 73
2020-08-11 06:00:00 20.9 3 Oeste 4 Norte 0 -- -- 72
2020-08-11 05:00:00 21.5 0 Calma 5 Norte 0 -- -- 70
2020-08-11 04:00:00 21.8 5 Norte 6 Norte 0 -- -- 70
2020-08-11 03:00:00 23.4 0 Calma 4 Norte 0 -- -- 63
2020-08-11 02:00:00 25.2 3 Norte 12 Sudoeste 0 -- -- 58
2020-08-11 01:00:00 27.2 6 Oeste 19 Sudoeste 0 -- -- 54
2020-08-11 00:00:00 28.5 11 Sur 24 Sudoeste 0 -- -- 54
2020-08-10 23:00:00 30.3 13 Sudoeste 24 Sudoeste 0 -- -- 48
2020-08-10 22:00:00 30.8 6 Sudoeste -- -- -- -- -- 50
2020-08-10 21:00:00 -- -- -- -- -- -- -- -- --
2020-08-10 20:00:00 -- -- -- -- -- -- -- -- --
2020-08-10 19:00:00 -- -- -- -- -- -- -- -- --
2020-08-10 18:00:00 -- -- -- -- -- -- -- -- --
2020-08-10 17:00:00 -- -- -- -- -- -- -- -- --
2020-08-10 16:00:00 -- -- -- -- -- -- -- -- --
2020-08-10 15:00:00 -- -- -- -- -- -- -- -- --
2020-08-10 14:00:00 -- -- -- -- -- -- -- -- --
2020-08-10 13:00:00 -- -- -- -- -- -- -- -- --
2020-08-10 12:00:00 -- -- -- -- -- -- -- -- --
2020-08-10 11:00:00 -- -- -- -- -- -- -- -- --
2020-08-10 10:00:00 -- -- -- -- -- -- -- -- --
2020-08-10 09:00:00 -- -- -- -- -- -- -- -- --
2020-08-10 08:00:00 22 3 Noroeste 8 Sur 0 -- -- 80
2020-08-10 07:00:00 20.9 0 Calma 5 Norte 0 -- -- 68
2020-08-10 06:00:00 21.3 0 Calma 4 Nordeste 0 -- -- 67
2020-08-10 05:00:00 22 3 Norte 5 Noroeste 0 -- -- 67
2020-08-10 04:00:00 23 3 Nordeste 9 Norte 0 -- -- 63
2020-08-10 03:00:00 23.9 3 Oeste 6 Noroeste 0 -- -- 59
2020-08-10 02:00:00 25.8 3 Nordeste 9 Oeste 0 -- -- 56
2020-08-10 01:00:00 27.6 9 Oeste 11 Sudoeste 0 -- -- 54
2020-08-10 00:00:00 29 9 Oeste 14 Oeste 0 -- -- 49
2020-08-09 23:00:00 31.3 6 Oeste 18 Sudoeste 0 -- -- 41
2020-08-09 22:00:00 33 9 Oeste 18 Sudoeste 0 -- -- 39
2020-08-09 21:00:00 34.4 7 Sudoeste 14 Sur 0 -- -- 35
2020-08-09 20:00:00 35.8 10 Sudoeste 27 Sudoeste 0 -- -- 31
2020-08-09 19:00:00 36.8 17 Sudoeste 31 Sudoeste 0 -- -- 29
2020-08-09 18:00:00 37.4 19 Sudoeste 32 Sudoeste 0 -- -- 28
2020-08-09 17:00:00 37.8 16 Sudoeste 29 Sudoeste 0 -- -- 26
2020-08-09 16:00:00 38.1 13 Sudoeste 22 Oeste 0 -- -- 25
2020-08-09 15:00:00 37.3 11 Sudoeste 21 Oeste 0 -- -- 26
2020-08-09 14:00:00 35.6 6 Sudoeste 16 Oeste 0 -- -- 26
2020-08-09 13:00:00 34 9 Sudeste 19 Sudeste 0 -- -- 26
2020-08-09 12:00:00 31.4 5 Sudeste 14 Este 0 -- -- 39
2020-08-09 11:00:00 28.9 5 Este 12 Este 0 -- -- 45
2020-08-09 10:00:00 26 0 Calma 5 Este 0 -- -- 52
2020-08-09 09:00:00 20.8 2 Sur 5 Norte 0 -- -- 65
2020-08-09 08:00:00 17.2 2 Sudoeste 6 Noroeste 0 -- -- 70
2020-08-09 07:00:00 17.8 0 Calma 5 Noroeste 0 -- -- 64
2020-08-09 06:00:00 18.5 4 Norte 6 Norte 0 -- -- 64
2020-08-09 05:00:00 19.7 0 Calma 4 Noroeste 0 -- -- 59
2020-08-09 04:00:00 20.9 0 Calma 8 Noroeste 0 -- -- 56
2020-08-09 03:00:00 22.3 3 Noroeste 6 Noroeste 0 -- -- 54
2020-08-09 02:00:00 23.9 5 Norte 7 Noroeste 0 -- -- 49
2020-08-09 01:00:00 26.5 5 Norte 19 Sudoeste 0 -- -- 44
2020-08-09 00:00:00 27.7 7 Sudoeste 14 Sudoeste 0 -- -- 47
2020-08-08 23:00:00 28 4 Norte 6 Norte 0 -- -- 38
2020-08-08 22:00:00 32 5 Noroeste 17 Oeste 0 -- -- 32
2020-08-08 21:00:00 35.8 9 Oeste 21 Oeste 0 -- -- 28
2020-08-08 20:00:00 38.5 9 Sudoeste 19 Sudoeste 0 -- -- 26
2020-08-08 19:00:00 39.5 6 Sudoeste 19 Sudoeste 0 -- -- 24
2020-08-08 18:00:00 39.7 8 Sudoeste 27 Sudoeste 0 -- -- 21
2020-08-08 17:00:00 39.5 10 Sudoeste 22 Oeste 0 -- -- 20
2020-08-08 16:00:00 39.3 12 Sur 22 Sudoeste 0 -- -- 21
2020-08-08 15:00:00 38.1 10 Sudeste 21 Sudeste 0 -- -- 22
2020-08-08 14:00:00 35.3 6 Sudoeste 21 Sudeste 0 -- -- 26
2020-08-08 13:00:00 33.4 9 Este 21 Este 0 -- -- 32
2020-08-08 12:00:00 31.4 9 Sudoeste 20 Sudoeste 0 -- -- 35
2020-08-08 11:00:00 29 12 Sudeste 21 Sudeste 0 -- -- 45
2020-08-08 10:00:00 26.3 11 Nordeste 21 Este 0 -- -- 58
2020-08-08 09:00:00 24.8 14 Este 22 Este 0 -- -- 69
2020-08-08 08:00:00 24.2 6 Oeste 14 Este 0 -- -- 69
2020-08-08 07:00:00 24.3 9 Oeste 21 Sudoeste 0 -- -- 69
2020-08-08 06:00:00 24.1 2 Noroeste 12 Este 0 -- -- 68
2020-08-08 05:00:00 24 4 Sudoeste 8 Nordeste 0 -- -- 69
2020-08-08 04:00:00 24 5 Este 9 Nordeste 0 -- -- 69
2020-08-08 03:00:00 23.9 4 Este 10 Nordeste 0 -- -- 66
2020-08-08 02:00:00 25.9 6 Sudoeste 13 Sudoeste 0 -- -- 63
2020-08-08 01:00:00 27.7 8 Sudoeste 19 Sur 0 -- -- 55
2020-08-08 00:00:00 26.6 4 Sudoeste 12 Sudoeste 0 -- -- 52
2020-08-07 23:00:00 29.8 0 Calma 13 Sudoeste 0 -- -- 45
2020-08-07 22:00:00 31.4 3 Oeste 15 Oeste 0 -- -- 38
2020-08-07 21:00:00 34.2 9 Oeste 18 Oeste 0 -- -- 32
2020-08-07 20:00:00 36.3 10 Oeste 20 Sudoeste 0 -- -- 28
2020-08-07 19:00:00 37 10 Sudoeste 23 Sudoeste 0 -- -- 28
2020-08-07 18:00:00 37.4 11 Sudoeste 22 Sudoeste 0 -- -- 28
2020-08-07 17:00:00 36.9 14 Sudoeste 25 Sudoeste 0 -- -- 29
2020-08-07 16:00:00 36.2 9 Sur 29 Oeste 0 -- -- 29
2020-08-07 15:00:00 35.8 8 Sudoeste 23 Sudoeste 0 -- -- 29
2020-08-07 14:00:00 34.8 8 Sur 26 Sur 0 -- -- 30
2020-08-07 13:00:00 33.7 10 Sur 22 Sur 0 -- -- 35
2020-08-07 12:00:00 32.1 8 Sudeste 15 Sudeste 0 -- -- 39
2020-08-07 11:00:00 29.6 4 Sudeste 10 Este 0 -- -- 46
2020-08-07 10:00:00 26.5 2 Sur 4 Sur 0 -- -- 53
2020-08-07 09:00:00 22.4 0 Calma 8 Norte 0 -- -- 65
2020-08-07 08:00:00 18.5 3 Noroeste 7 Sudoeste 0 -- -- 72
2020-08-07 07:00:00 18.3 0 Calma 4 Norte 0 -- -- 69
2020-08-07 06:00:00 18.9 0 Calma 2 Noroeste 0 -- -- 66
2020-08-07 05:00:00 20 0 Calma 3 Oeste 0 -- -- 63
2020-08-07 04:00:00 21.2 0 Calma 7 Norte 0 -- -- 62
2020-08-07 03:00:00 22.1 4 Norte 6 Norte 0 -- -- 60
2020-08-07 02:00:00 24.3 0 Calma 10 Este 0 -- -- 56
2020-08-07 01:00:00 26.6 4 Oeste 10 Sudoeste 0 -- -- 51
2020-08-07 00:00:00 29.8 2 Sudoeste 24 Sudoeste 0 -- -- 47
2020-08-06 23:00:00 30.5 11 Sur 23 Sur 0 -- -- 38
2020-08-06 22:00:00 32.3 6 Este 29 Sur 0 -- -- 25
2020-08-06 21:00:00 34.9 17 Sudeste 30 Sudeste 0 -- -- 24
2020-08-06 20:00:00 38 15 Sudeste 28 Sudeste 0 -- -- 21
2020-08-06 19:00:00 39.4 15 Sudeste 32 Sudeste 0 -- -- 22
2020-08-06 18:00:00 40.1 15 Sudeste 31 Sudeste 0 -- -- 23
2020-08-06 17:00:00 39.8 15 Sudeste 34 Sur 0 -- -- 23
2020-08-06 16:00:00 39.9 17 Sur 31 Sur 0 -- -- 24
2020-08-06 15:00:00 38.6 17 Sudeste 34 Sudeste 0 -- -- 28
2020-08-06 14:00:00 36.4 14 Sudeste 30 Sudeste 0 -- -- 30
2020-08-06 13:00:00 34.3 12 Este 26 Este 0 -- -- 33
2020-08-06 12:00:00 33.2 11 Sudeste 23 Este 0 -- -- 36
2020-08-06 11:00:00 30.8 13 Este 22 Este 0 -- -- 38
2020-08-06 10:00:00 28.6 15 Este 22 Este 0 -- -- 42
2020-08-06 09:00:00 22.1 2 Este 7 Sur 0 -- -- 61
2020-08-06 08:00:00 17.3 0 Calma 4 Norte 0 -- -- 67
2020-08-06 07:00:00 17.9 0 Calma 4 Norte 0 -- -- 65
2020-08-06 06:00:00 18.8 0 Calma 4 Norte 0 -- -- 60
2020-08-06 05:00:00 20 0 Calma 5 Norte 0 -- -- 57
2020-08-06 04:00:00 21.5 0 Calma 6 Nordeste 0 -- -- 53
2020-08-06 03:00:00 23.3 3 Nordeste 8 Este 0 -- -- 48
2020-08-06 02:00:00 26.3 4 Este 13 Este 0 -- -- 42
2020-08-06 01:00:00 27.3 7 Nordeste 14 Nordeste 0 -- -- 37
2020-08-06 00:00:00 28.3 9 Nordeste 12 Nordeste 0 -- -- 34
2020-08-05 23:00:00 27.1 4 Nordeste 6 Nordeste 0 -- -- 37
2020-08-05 22:00:00 31.8 0 Calma 13 Este 0 -- -- 31
2020-08-05 21:00:00 35.7 8 Este 18 Este 0 -- -- 26
2020-08-05 20:00:00 37.6 11 Sudeste 25 Sudeste 0 -- -- 24
2020-08-05 19:00:00 38.4 8 Sudeste 26 Sudeste 0 -- -- 24
2020-08-05 18:00:00 38.6 17 Sur 28 Sur 0 -- -- 25
2020-08-05 17:00:00 38.3 12 Sudeste 27 Sudeste 0 -- -- 25
2020-08-05 16:00:00 37.9 8 Sudeste 25 Sudeste 0 -- -- 26
2020-08-05 15:00:00 36.7 15 Sur 27 Este 0 -- -- 28
2020-08-05 14:00:00 35.5 12 Sudeste 23 Sudeste 0 -- -- 32
2020-08-05 13:00:00 34.2 9 Sudeste 22 Sudeste 0 -- -- 36
2020-08-05 12:00:00 32.1 10 Sudeste 19 Este 0 -- -- 45
2020-08-05 11:00:00 30.1 4 Nordeste 9 Este 0 -- -- 49
2020-08-05 10:00:00 27.3 2 Noroeste 6 Norte 0 -- -- 54
2020-08-05 09:00:00 23.1 0 Calma 2 Sudeste 0 -- -- 67
2020-08-05 08:00:00 19.5 3 Norte 4 Noroeste 0 -- -- 72
2020-08-05 07:00:00 19.7 2 Norte 5 Sudeste 0 -- -- 72
2020-08-05 06:00:00 20.5 0 Calma 9 Noroeste 0 -- -- 68
2020-08-05 05:00:00 20.9 3 Nordeste 8 Sudeste 0 -- -- 68
2020-08-05 04:00:00 21.3 7 Norte 9 Norte 0 -- -- 66
2020-08-05 03:00:00 21.8 5 Norte 8 Noroeste 0 -- -- 63
2020-08-05 02:00:00 22.9 0 Calma 6 Noroeste 0 -- -- 59
2020-08-05 01:00:00 24.1 4 Norte 9 Norte 0 -- -- 56
2020-08-05 00:00:00 25.3 0 Calma 8 Noroeste 0 -- -- 50
2020-08-04 23:00:00 26.4 3 Sudeste 8 Sudeste 0 -- -- 46
2020-08-04 22:00:00 29 0 Calma 9 Sudoeste 0 -- -- 40
2020-08-04 21:00:00 33.9 5 Sudoeste 13 Sur 0 -- -- 34
2020-08-04 20:00:00 35.4 8 Sudoeste 18 Sudoeste 0 -- -- 31
2020-08-04 19:00:00 36.4 9 Sudoeste 22 Sudeste 0 -- -- 31
2020-08-04 18:00:00 36.4 10 Sur 23 Sudoeste 0 -- -- 32
2020-08-04 17:00:00 35.7 12 Sudoeste 22 Sudoeste 0 -- -- 35
2020-08-04 16:00:00 35.3 10 Sudoeste 22 Sudoeste 0 -- -- 35
2020-08-04 15:00:00 33.6 9 Sudoeste 22 Sudoeste 0 -- -- 39
2020-08-04 14:00:00 32.3 11 Sur 22 Sur 0 -- -- 44
2020-08-04 13:00:00 31.1 10 Sur 18 Sur 0 -- -- 43
2020-08-04 12:00:00 29.7 8 Sudeste 16 Sur 0 -- -- 49
2020-08-04 11:00:00 28.4 4 Sur 11 Sur 0 -- -- 51
2020-08-04 10:00:00 25.5 2 Sur 6 Oeste 0 -- -- 58
2020-08-04 09:00:00 21.7 0 Calma 3 Noroeste 0 -- -- 67
2020-08-04 08:00:00 17.1 0 Calma 5 Noroeste 0 -- -- 72
2020-08-04 07:00:00 17.4 0 Calma 2 Noroeste 0 -- -- 68
2020-08-04 06:00:00 18.7 0 Calma 10 Norte 0 -- -- 69
2020-08-04 05:00:00 18.7 0 Calma 6 Norte 0 -- -- 66
2020-08-04 04:00:00 20 3 Noroeste 6 Norte 0 -- -- 61
2020-08-04 03:00:00 22.3 4 Oeste 9 Sudoeste 0 -- -- 59
2020-08-04 02:00:00 23.8 6 Noroeste 13 Oeste 0 -- -- 55
2020-08-04 01:00:00 25.3 9 Oeste 18 Sudoeste 0 -- -- 50
2020-08-04 00:00:00 26.3 7 Sudoeste 23 Sudoeste 0 -- -- 47
2020-08-03 23:00:00 28 13 Sudoeste 25 Oeste 0 -- -- 42
2020-08-03 22:00:00 30.1 16 Oeste 30 Sudoeste 0 -- -- 35
2020-08-03 21:00:00 32.6 20 Sudoeste 32 Sudoeste 0 -- -- 31
2020-08-03 20:00:00 36.1 9 Noroeste 23 Oeste 0 -- -- 24
2020-08-03 19:00:00 36.7 9 Oeste 32 Sudoeste 0 -- -- 23
2020-08-03 18:00:00 36.4 14 Sudoeste 28 Sur 0 -- -- 25
2020-08-03 17:00:00 36.1 8 Sudoeste 26 Sudoeste 0 -- -- 26
2020-08-03 16:00:00 35.4 15 Sudoeste 28 Oeste 0 -- -- 28
2020-08-03 15:00:00 34.9 10 Sudoeste 30 Sur 0 -- -- 29
2020-08-03 14:00:00 33.7 12 Sudoeste 24 Sur 0 -- -- 32
2020-08-03 13:00:00 32.3 9 Nordeste 19 Norte 0 -- -- 28
2020-08-03 12:00:00 30.6 5 Norte 16 Norte 0 -- -- 31
2020-08-03 11:00:00 27.8 7 Oeste 14 Noroeste 0 -- -- 39
2020-08-03 10:00:00 24.5 4 Oeste 9 Oeste 0 -- -- 52
2020-08-03 09:00:00 19.4 0 Calma 3 Norte 0 -- -- 68
2020-08-03 08:00:00 16.4 2 Sudoeste 8 Noroeste 0 -- -- 71
2020-08-03 07:00:00 16.3 0 Calma 5 Noroeste 0 -- -- 69
2020-08-03 06:00:00 16.8 2 Nordeste 9 Noroeste 0 -- -- 68
2020-08-03 05:00:00 16.3 0 Calma 6 Noroeste 0 -- -- 67
2020-08-03 04:00:00 16.8 3 Sudoeste 7 Norte 0 -- -- 66
2020-08-03 03:00:00 17.9 3 Noroeste 6 Noroeste 0 -- -- 63
2020-08-03 02:00:00 19.5 2 Norte 6 Nordeste 0 -- -- 58
2020-08-03 01:00:00 21.4 3 Oeste 6 Oeste 0 -- -- 54
2020-08-03 00:00:00 24.6 0 Calma 10 Sur 0 -- -- 47
2020-08-02 23:00:00 27.9 7 Sudoeste 25 Sudoeste 0 -- -- 43
2020-08-02 22:00:00 30.1 12 Sudoeste 32 Sudoeste 0 -- -- 39
2020-08-02 21:00:00 32.9 16 Sudoeste 34 Sudoeste 0 -- -- 32
2020-08-02 20:00:00 35.9 21 Sudoeste 40 Sudoeste 0 -- -- 24
2020-08-02 19:00:00 38.3 17 Sudoeste 38 Sur 0 -- -- 21
2020-08-02 18:00:00 39.3 17 Sudoeste 35 Sudoeste 0 -- -- 20
2020-08-02 17:00:00 39.6 18 Sudoeste 36 Sur 0 -- -- 17
2020-08-02 16:00:00 38.8 13 Sudoeste 53 Sur 0 -- -- 19
2020-08-02 15:00:00 37.4 12 Sudoeste 25 Sudoeste 0 -- -- 22
2020-08-02 14:00:00 36 11 Sur 24 Sudoeste 0 -- -- 27
2020-08-02 13:00:00 34.7 5 Sur 13 Oeste 0 -- -- 27
2020-08-02 12:00:00 33 6 Sudoeste 12 Sur 0 -- -- 31
2020-08-02 11:00:00 31.2 5 Este 16 Norte 0 -- -- 27
2020-08-02 10:00:00 28.5 9 Norte 20 Noroeste 0 -- -- 29
2020-08-02 09:00:00 25.5 8 Noroeste 15 Norte 0 -- -- 43
2020-08-02 08:00:00 22.2 3 Oeste 12 Noroeste 0 -- -- 53
2020-08-02 07:00:00 23.3 4 Oeste 12 Noroeste 0 -- -- 49
2020-08-02 06:00:00 24.6 3 Oeste 15 Noroeste 0 -- -- 47
2020-08-02 05:00:00 26.1 9 Noroeste 23 Noroeste 0 -- -- 46
2020-08-02 04:00:00 20.5 0 Calma 6 Noroeste 0 -- -- 50
2020-08-02 03:00:00 20.6 0 Calma 5 Norte 0 -- -- 46
2020-08-02 02:00:00 21.2 2 Nordeste 5 Oeste 0 -- -- 41
2020-08-02 01:00:00 23.1 0 Calma 10 Norte 0 -- -- 42
2020-08-02 00:00:00 25.5 0 Calma 8 Noroeste 0 -- -- 35
2020-08-01 23:00:00 30.1 2 Norte 14 Oeste 0 -- -- 33
2020-08-01 22:00:00 33.5 9 Oeste 16 Oeste 0 -- -- 31
2020-08-01 21:00:00 38 3 Norte 14 Sudoeste 0 -- -- 20
2020-08-01 20:00:00 40.8 9 Sudoeste 26 Sudeste 0 -- -- 18
2020-08-01 19:00:00 42.8 14 Oeste 38 Oeste 0 -- -- 10
2020-08-01 18:00:00 43.1 15 Oeste 26 Noroeste 0 -- -- 10
2020-08-01 17:00:00 42 13 Nordeste 25 Nordeste 0 -- -- 19
2020-08-01 16:00:00 41.1 9 Sur 19 Sudoeste 0 -- -- 20
2020-08-01 15:00:00 39.4 6 Sudoeste 22 Sur 0 -- -- 24
2020-08-01 14:00:00 37.8 7 Sur 20 Sudoeste 0 -- -- 27
2020-08-01 13:00:00 36 8 Sudeste 17 Sudeste 0 -- -- 30
2020-08-01 12:00:00 34.4 9 Sur 15 Este 0 -- -- 34
2020-08-01 11:00:00 32.1 2 Sur 10 Este 0 -- -- 32
2020-08-01 10:00:00 28.1 0 Calma 6 Este 0 -- -- 42
2020-08-01 09:00:00 23 0 Calma 7 Norte 0 -- -- 71
2020-08-01 08:00:00 20.4 2 Norte 6 Noroeste 0 -- -- 77
2020-08-01 07:00:00 21 5 Norte 8 Norte 0 -- -- 75
2020-08-01 06:00:00 22.5 3 Nordeste 8 Norte 0 -- -- 69
2020-08-01 05:00:00 23.8 5 Nordeste 10 Sudeste 0 -- -- 66
2020-08-01 04:00:00 25.5 2 Oeste 10 Sur 0 -- -- 61
2020-08-01 03:00:00 24.3 4 Norte 7 Noroeste 0 -- -- 67
2020-08-01 02:00:00 25.3 0 Calma 6 Noroeste 0 -- -- 60
2020-08-01 01:00:00 27.8 3 Norte 6 Noroeste 0 -- -- 54
2020-08-01 00:00:00 30.5 3 Noroeste 14 Oeste 0 -- -- 50
2020-07-31 23:00:00 32 7 Oeste 15 Oeste 0 -- -- 44
2020-07-31 22:00:00 33.3 8 Oeste 20 Sudoeste 0 -- -- 37
2020-07-31 21:00:00 35.1 9 Sudoeste 23 Sudoeste 0 -- -- 31
2020-07-31 20:00:00 36.7 16 Sudoeste 24 Sudoeste 0 -- -- 26
2020-07-31 19:00:00 38 11 Sudoeste 25 Sudoeste 0 -- -- 26
2020-07-31 18:00:00 38.8 13 Sudoeste 27 Sudoeste 0 -- -- 21
2020-07-31 17:00:00 38.7 13 Sudoeste 30 Sur 0 -- -- 22
2020-07-31 16:00:00 38.2 12 Sudoeste 24 Sudoeste 0 -- -- 29
2020-07-31 15:00:00 37.4 7 Sudoeste 18 Sudoeste 0 -- -- 34
2020-07-31 14:00:00 35.6 8 Sudoeste 18 Sur 0 -- -- 37
2020-07-31 13:00:00 33.9 9 Sudeste 19 Sudeste 0 -- -- 43
2020-07-31 12:00:00 32.3 9 Sudeste 16 Sudeste 0 -- -- 45
2020-07-31 11:00:00 30.3 5 Este 10 Sudeste 0 -- -- 56
2020-07-31 10:00:00 26.7 3 Sur 5 Sur 0 -- -- 65
2020-07-31 09:00:00 22.6 2 Sudeste 4 Sur 0 -- -- 76
2020-07-31 08:00:00 18.8 3 Norte 4 Noroeste 0 -- -- 79
2020-07-31 07:00:00 18.9 2 Norte 5 Norte 0 -- -- 79
2020-07-31 06:00:00 20.1 0 Calma 5 Norte 0 -- -- 74
2020-07-31 05:00:00 21.2 0 Calma 8 Norte 0 -- -- 74
2020-07-31 04:00:00 22.3 3 Norte 5 Noroeste 0 -- -- 72
2020-07-31 03:00:00 24 4 Nordeste 9 Oeste 0 -- -- 69
2020-07-31 02:00:00 25.2 6 Noroeste 8 Oeste 0 -- -- 65
2020-07-31 01:00:00 27.8 6 Oeste 11 Sudoeste 0 -- -- 62
2020-07-31 00:00:00 30 5 Sur 17 Sudoeste 0 -- -- 52
2020-07-30 23:00:00 31.4 5 Oeste 19 Oeste 0 -- -- 47
2020-07-30 22:00:00 32.9 8 Sudoeste 23 Sudoeste 0 -- -- 42
2020-07-30 21:00:00 35.2 12 Sudoeste 27 Oeste 0 -- -- 36
2020-07-30 20:00:00 37 14 Oeste 35 Sudoeste 0 -- -- 31
2020-07-30 19:00:00 37.6 16 Sudoeste 34 Oeste 0 -- -- 35
2020-07-30 18:00:00 38.2 16 Sudoeste 33 Oeste 0 -- -- 33
2020-07-30 17:00:00 37.5 17 Sudoeste 32 Oeste 0 -- -- 34
2020-07-30 16:00:00 37.6 14 Sudoeste 33 Sudoeste 0 -- -- 34
2020-07-30 15:00:00 36.8 16 Sudoeste 26 Sudoeste 0 -- -- 34
2020-07-30 14:00:00 36.1 10 Sudoeste 22 Sur 0 -- -- 36
2020-07-30 13:00:00 34.3 10 Sur 20 Sur 0 -- -- 39
2020-07-30 12:00:00 32.3 11 Sudeste 21 Sudeste 0 -- -- 43
2020-07-30 11:00:00 30.2 9 Este 15 Sudeste 0 -- -- 48
2020-07-30 10:00:00 27.8 7 Este 14 Este 0 -- -- 54
2020-07-30 09:00:00 23.7 0 Calma 2 Sudeste 0 -- -- 68
2020-07-30 08:00:00 20.7 0 Calma 6 Sudoeste 0 -- -- 73
2020-07-30 07:00:00 21.2 2 Este 7 Sudeste 0 -- -- 72
2020-07-30 06:00:00 22.3 4 Norte 8 Sudeste 0 -- -- 67
2020-07-30 05:00:00 23.9 4 Noroeste 11 Nordeste 0 -- -- 63
2020-07-30 04:00:00 25.3 5 Oeste 14 Sur 0 -- -- 62
2020-07-30 03:00:00 26.6 6 Sur 18 Sudoeste 0 -- -- 59
2020-07-30 02:00:00 27.6 10 Sudoeste 21 Sudoeste 0 -- -- 56
2020-07-30 01:00:00 27.1 4 Sur 8 Sur 0 -- -- 50
2020-07-30 00:00:00 29.8 6 Noroeste 17 Sudoeste 0 -- -- 44
2020-07-29 23:00:00 31.8 10 Sudoeste 18 Sudoeste 0 -- -- 40
2020-07-29 22:00:00 32.9 5 Sudoeste 15 Oeste 0 -- -- 39
2020-07-29 21:00:00 35.3 12 Oeste 23 Oeste 0 -- -- 34
2020-07-29 20:00:00 37.3 14 Oeste 24 Oeste 0 -- -- 32
2020-07-29 19:00:00 39 6 Sudoeste 21 Sudoeste 0 -- -- 26
2020-07-29 18:00:00 38.9 9 Sudoeste 23 Sur 0 -- -- 29
2020-07-29 17:00:00 38.5 11 Sur 24 Sudoeste 0 -- -- 30
2020-07-29 16:00:00 38.4 8 Sudoeste 17 Sur 0 -- -- 27
2020-07-29 15:00:00 36.5 8 Sudoeste 22 Sur 0 -- -- 31
2020-07-29 14:00:00 35 8 Sudoeste 19 Sudoeste 0 -- -- 31
2020-07-29 13:00:00 33.5 9 Sudeste 16 Sur 0 -- -- 39
2020-07-29 12:00:00 31.7 5 Sur 15 Sudeste 0 -- -- 45
2020-07-29 11:00:00 29.5 5 Sudeste 10 Sur 0 -- -- 52
2020-07-29 10:00:00 26.2 3 Oeste 6 Oeste 0 -- -- 60
2020-07-29 09:00:00 21.9 0 Calma 4 Sudoeste 0 -- -- 65
2020-07-29 08:00:00 17.4 0 Calma 7 Norte 0 -- -- 73
2020-07-29 07:00:00 16.8 3 Norte 4 Norte 0 -- -- 74
2020-07-29 06:00:00 17.4 0 Calma 3 Noroeste 0 -- -- 67
2020-07-29 05:00:00 18.6 0 Calma 4 Norte 0 -- -- 66
2020-07-29 04:00:00 19.4 2 Norte 5 Noroeste 0 -- -- 64
2020-07-29 03:00:00 20.7 0 Calma 7 Noroeste 0 -- -- 59
2020-07-29 02:00:00 22.1 0 Calma 8 Noroeste 0 -- -- 53
2020-07-29 01:00:00 23.4 4 Noroeste 7 Noroeste 0 -- -- 49
2020-07-29 00:00:00 25.5 3 Noroeste 10 Noroeste 0 -- -- 45
2020-07-28 23:00:00 29.4 3 Sudoeste 15 Oeste 0 -- -- 39
2020-07-28 22:00:00 33 9 Oeste 23 Oeste 0 -- -- 34
2020-07-28 21:00:00 35.1 17 Sudoeste 30 Sudoeste 0 -- -- 33
2020-07-28 20:00:00 37.2 17 Sudoeste 30 Sudoeste 0 -- -- 31
2020-07-28 19:00:00 38.9 15 Sudoeste 28 Oeste -- -- -- 25
2020-07-28 18:00:00 38.9 18 Sudoeste 30 Sudoeste 0 -- -- 22
2020-07-28 17:00:00 38.8 14 Sudoeste 33 Sur 0 -- -- 25
2020-07-28 16:00:00 38.3 13 Sur 27 Sur 0 -- -- 30
2020-07-28 15:00:00 37.5 13 Sur 27 Oeste 0 -- -- 35
2020-07-28 14:00:00 36.3 6 Sudoeste 15 Sur 0 -- -- 31
2020-07-28 13:00:00 34.1 5 Este 21 Sur 0 -- -- 41
2020-07-28 12:00:00 32.2 5 Sur 13 Sur 0 -- -- 45
2020-07-28 11:00:00 29.5 3 Sur 10 Sur 0 -- -- 49
2020-07-28 10:00:00 26.5 4 Este 9 Este 0 -- -- 59
2020-07-28 09:00:00 22.5 0 Calma 3 Oeste 0 -- -- 66
2020-07-28 08:00:00 18.2 0 Calma 4 Norte 0 -- -- 73
2020-07-28 07:00:00 18.3 3 Norte 6 Noroeste 0 -- -- 74
2020-07-28 06:00:00 19.1 2 Nordeste 5 Norte 0 -- -- 72
2020-07-28 05:00:00 20.2 4 Norte 6 Noroeste 0 -- -- 69
2020-07-28 04:00:00 22.5 2 Nordeste 9 Este 0 -- -- 64
2020-07-28 03:00:00 23.6 3 Sur 10 Sur 0 -- -- 61
2020-07-28 02:00:00 22.8 3 Nordeste 6 Oeste 0 -- -- 54
2020-07-28 01:00:00 25.3 6 Oeste 9 Sudoeste 0 -- -- 49
2020-07-28 00:00:00 27.8 4 Oeste 17 Oeste 0 -- -- 41
2020-07-27 23:00:00 29.9 11 Oeste 22 Sudoeste 0 -- -- 37
2020-07-27 22:00:00 31.6 13 Oeste 27 Oeste 0 -- -- 34
2020-07-27 21:00:00 33.6 18 Oeste 33 Oeste 0 -- -- 29
2020-07-27 20:00:00 35.5 18 Sudoeste 36 Sudoeste 0 -- -- 28
2020-07-27 19:00:00 36.2 22 Sudoeste 36 Sudoeste 0 -- -- 32
2020-07-27 18:00:00 36.9 17 Sudoeste 37 Sudoeste 0 -- -- 32
2020-07-27 17:00:00 36.8 17 Sudoeste 35 Sudoeste 0 -- -- 34
2020-07-27 16:00:00 36.5 15 Sudoeste 31 Sudoeste 0 -- -- 36
2020-07-27 15:00:00 35.7 14 Sudoeste 30 Sudoeste 0 -- -- 36
2020-07-27 14:00:00 35.1 12 Sudoeste 24 Sudoeste 0 -- -- 35
2020-07-27 13:00:00 34 9 Sudoeste 22 Sudoeste 0 -- -- 37
2020-07-27 12:00:00 32.6 11 Sudoeste 18 Sudoeste 0 -- -- 38
2020-07-27 09:00:00 23.7 0 Calma 5 Este 0 -- -- 56
2020-07-27 08:00:00 19.6 0 Calma 5 Noroeste 0 -- -- 65
2020-07-27 07:00:00 20.1 0 Calma 12 Sudeste 0 -- -- 62
2020-07-27 06:00:00 21.3 3 Norte 9 Sudeste 0 -- -- 58
2020-07-27 05:00:00 22.5 5 Norte 6 Noroeste 0 -- -- 54
2020-07-27 04:00:00 23.9 5 Noroeste 13 Oeste 0 -- -- 52
2020-07-27 03:00:00 27.2 9 Oeste 32 Oeste 0 -- -- 45
2020-07-27 02:00:00 28 15 Oeste 31 Oeste 0 -- -- 44
2020-07-27 01:00:00 29.2 8 Sudoeste 30 Sudoeste 0 -- -- 45
2020-07-27 00:00:00 31.8 12 Sudoeste 22 Sudoeste 0 -- -- 42
2020-07-26 23:00:00 31 6 Sur 14 Sur 0 -- -- 28
2020-07-26 22:00:00 34.8 7 Sudeste 16 Este 0 -- -- 24
2020-07-26 21:00:00 39.5 10 Este 21 Sudeste 0 -- -- 19
2020-07-26 20:00:00 41.7 8 Sudeste 19 Este 0 -- -- 18
2020-07-26 19:00:00 42.1 6 Sudeste 22 Este 0 -- -- 20
2020-07-26 18:00:00 42.4 8 Este 20 Este 0 -- -- 19
2020-07-26 17:00:00 42.4 5 Oeste 21 Sur 0 -- -- 20
2020-07-26 16:00:00 41.1 7 Sudeste 21 Sur 0 -- -- 20
2020-07-26 15:00:00 40.4 6 Sudeste 21 Sudeste 0 -- -- 22
2020-07-26 14:00:00 39.2 6 Sudoeste 14 Sur 0 -- -- 24
2020-07-26 13:00:00 37.2 5 Sudoeste 12 Sur 0 -- -- 27
2020-07-26 12:00:00 35 5 Sudeste 15 Este 0 -- -- 31
2020-07-26 11:00:00 32.5 6 Este 14 Nordeste 0 -- -- 31
2020-07-26 10:00:00 28 2 Sur 4 Sudoeste 0 -- -- 39
2020-07-26 09:00:00 22.9 0 Calma 3 Norte 0 -- -- 53
2020-07-26 08:00:00 17.5 2 Sudeste 4 Noroeste 0 -- -- 63
2020-07-26 07:00:00 17.1 0 Calma 4 Noroeste 0 -- -- 62
2020-07-26 06:00:00 18.1 0 Calma 3 Norte 0 -- -- 59
2020-07-26 05:00:00 19.3 2 Norte 7 Norte 0 -- -- 58
2020-07-26 04:00:00 20.2 0 Calma 7 Norte 0 -- -- 56
2020-07-26 03:00:00 21.3 2 Sudeste 7 Noroeste 0 -- -- 52
2020-07-26 02:00:00 22.9 0 Calma 9 Norte 0 -- -- 48
2020-07-26 01:00:00 24.6 3 Norte 8 Noroeste 0 -- -- 46
2020-07-26 00:00:00 27.4 4 Oeste 8 Oeste 0 -- -- 41
2020-07-25 23:00:00 32.1 8 Oeste 19 Sudoeste 0 -- -- 35
2020-07-25 22:00:00 35 12 Sudoeste 21 Sudoeste 0 -- -- 30
2020-07-25 21:00:00 36.8 11 Sudoeste 21 Sudoeste 0 -- -- 27
2020-07-25 20:00:00 39 13 Oeste 27 Sudoeste 0 -- -- 24
2020-07-25 19:00:00 40.2 12 Sudoeste 22 Oeste 0 -- -- 23
2020-07-25 18:00:00 40.6 9 Oeste 24 Sudoeste 0 -- -- 22
2020-07-25 17:00:00 40.5 14 Sudoeste 27 Oeste 0 -- -- 22
2020-07-25 16:00:00 40.5 9 Sur 21 Sur 0 -- -- 19
2020-07-25 15:00:00 39.7 10 Sur 21 Sur 0 -- -- 20
2020-07-25 14:00:00 38.5 9 Sur 17 Sudeste 0 -- -- 21
2020-07-25 13:00:00 37.3 7 Este 20 Sudeste 0 -- -- 24
2020-07-25 12:00:00 35.6 5 Sudeste 11 Sudeste 0 -- -- 26
2020-07-25 11:00:00 32.7 6 Este 11 Este 0 -- -- 31
2020-07-25 10:00:00 29.1 3 Sudeste 6 Este 0 -- -- 36
2020-07-25 09:00:00 23 0 Calma 5 Sudeste 0 -- -- 53
2020-07-25 08:00:00 18 0 Calma 9 Sudeste 0 -- -- 59
2020-07-25 07:00:00 18.1 0 Calma 4 Norte 0 -- -- 53
2020-07-25 06:00:00 20.1 0 Calma 5 Norte 0 -- -- 49
2020-07-25 05:00:00 22.8 3 Norte 15 Norte 0 -- -- 42
2020-07-25 04:00:00 26.7 7 Nordeste 20 Norte 0 -- -- 35
2020-07-25 03:00:00 22.6 4 Oeste 9 Noroeste 0 -- -- 42
2020-07-25 02:00:00 22.8 2 Nordeste 8 Oeste 0 -- -- 43
2020-07-25 01:00:00 24.3 3 Norte 9 Norte 0 -- -- 42
2020-07-25 00:00:00 27.2 2 Sudoeste 9 Oeste 0 -- -- 36
2020-07-24 23:00:00 31.3 7 Oeste 12 Oeste 0 -- -- 31
2020-07-24 22:00:00 34.2 8 Oeste 23 Sudoeste 0 -- -- 27
2020-07-24 21:00:00 36.2 14 Sudoeste 31 Sudoeste 0 -- -- 27
2020-07-24 20:00:00 37.8 18 Sudoeste 30 Sudoeste 0 -- -- 28
2020-07-24 19:00:00 39 18 Sudoeste 32 Sudoeste 0 -- -- 25
2020-07-24 18:00:00 39.6 14 Sudoeste 31 Sudoeste 0 -- -- 24
2020-07-24 17:00:00 39.7 14 Sudoeste 30 Sudoeste 0 -- -- 24
2020-07-24 16:00:00 39.5 12 Oeste 31 Sur 0 -- -- 24
2020-07-24 15:00:00 38.6 12 Oeste 23 Sudoeste 0 -- -- 26
2020-07-24 14:00:00 37.8 11 Sur 23 Sur 0 -- -- 26
2020-07-24 13:00:00 36.3 6 Sur 13 Sur 0 -- -- 32
2020-07-24 12:00:00 34.4 7 Sur 18 Sur 0 -- -- 37
2020-07-24 11:00:00 32.9 3 Norte 6 Este 0 -- -- 37
2020-07-24 10:00:00 29.2 0 Calma 4 Sur 0 -- -- 47
2020-07-24 09:00:00 24.2 0 Calma 2 Norte 0 -- -- 57
2020-07-24 08:00:00 19.5 0 Calma 5 Norte 0 -- -- 66
2020-07-24 07:00:00 19.3 3 Norte 5 Norte 0 -- -- 67
2020-07-24 06:00:00 20 0 Calma 6 Norte 0 -- -- 62
2020-07-24 05:00:00 20.7 0 Calma 6 Norte 0 -- -- 60
2020-07-24 04:00:00 21.6 3 Norte 7 Norte 0 -- -- 58
2020-07-24 03:00:00 23.2 3 Noroeste 7 Norte 0 -- -- 54
2020-07-24 02:00:00 25.2 0 Calma 10 Sudoeste 0 -- -- 48
2020-07-24 01:00:00 27.5 4 Noroeste 14 Oeste 0 -- -- 42
2020-07-24 00:00:00 31 9 Oeste 21 Sudoeste 0 -- -- 36
2020-07-23 23:00:00 32 9 Oeste 24 Oeste 0 -- -- 36
2020-07-23 22:00:00 33.7 16 Oeste 32 Sudoeste 0 -- -- 34
2020-07-23 21:00:00 36 18 Sudoeste 28 Oeste 0 -- -- 33
2020-07-23 20:00:00 37.4 16 Sudoeste 25 Sudoeste 0 -- -- 28
2020-07-23 19:00:00 38.4 14 Sudoeste 26 Sudoeste 0 -- -- 27
2020-07-23 18:00:00 39.1 9 Sur 23 Sudoeste 0 -- -- 26
2020-07-23 17:00:00 38.5 10 Sudoeste 31 Sudoeste 0 -- -- 26
2020-07-23 16:00:00 38.7 10 Sur 22 Sur 0 -- -- 26
2020-07-23 15:00:00 37.2 9 Sudeste 26 Sudeste 0 -- -- 29
2020-07-23 14:00:00 35.5 10 Sur 17 Sur 0 -- -- 36
2020-07-23 13:00:00 33.6 8 Sur 17 Sur 0 -- -- 41
2020-07-23 12:00:00 31.9 6 Este 13 Sudeste 0 -- -- 46
2020-07-23 11:00:00 29.4 3 Oeste 7 Nordeste 0 -- -- 52
2020-07-23 10:00:00 26.2 0 Calma 5 Oeste 0 -- -- 65
2020-07-23 09:00:00 22.8 0 Calma 4 Oeste 0 -- -- 75
2020-07-23 08:00:00 19.3 0 Calma 3 Noroeste 0 -- -- 83
2020-07-23 07:00:00 19.9 2 Norte 7 Este 0 -- -- 79
2020-07-23 06:00:00 21.2 5 Este 14 Sudeste 0 -- -- 79
2020-07-23 05:00:00 21.2 4 Norte 9 Noroeste 0 -- -- 76
2020-07-23 04:00:00 21.7 4 Noroeste 8 Norte 0 -- -- 72
2020-07-23 03:00:00 23.7 0 Calma 11 Sudoeste 0 -- -- 67
2020-07-23 02:00:00 25.1 3 Sur 10 Oeste 0 -- -- 64
2020-07-23 01:00:00 27 6 Sur 15 Noroeste 0 -- -- 60
2020-07-23 00:00:00 28.3 8 Oeste 23 Oeste 0 -- -- 57
2020-07-22 23:00:00 29.4 12 Oeste 21 Oeste 0 -- -- 53
2020-07-22 22:00:00 30.6 13 Oeste 23 Oeste 0 -- -- 50
2020-07-22 21:00:00 32.8 14 Sudoeste 24 Sudoeste 0 -- -- 41
2020-07-22 20:00:00 33.8 13 Sudoeste 23 Sudoeste 0 -- -- 39
2020-07-22 19:00:00 34.4 12 Sudoeste 24 Sudoeste 0 -- -- 39
2020-07-22 18:00:00 34.7 9 Sudoeste 23 Sudoeste 0 -- -- 39
2020-07-22 17:00:00 34.4 16 Sudoeste 27 Sudoeste 0 -- -- 40
2020-07-22 16:00:00 33.6 13 Sudoeste 26 Oeste 0 -- -- 42
2020-07-22 15:00:00 33.3 11 Oeste 25 Sudoeste 0 -- -- 43
2020-07-22 14:00:00 31.5 8 Oeste 23 Sudoeste 0 -- -- 47
2020-07-22 13:00:00 30.2 10 Sudoeste 19 Oeste 0 -- -- 51
2020-07-22 12:00:00 28.7 6 Sudoeste 18 Sudoeste 0 -- -- 57
2020-07-22 11:00:00 26.7 6 Sur 17 Oeste 0 -- -- 65
2020-07-22 10:00:00 25 11 Oeste 19 Oeste 0 -- -- 71
2020-07-22 09:00:00 23.3 3 Sur 8 Sudoeste 0 -- -- 78
2020-07-22 08:00:00 20.4 0 Calma 8 Noroeste 0 -- -- 84
2020-07-22 07:00:00 20.9 2 Sur 7 Oeste 0 -- -- 82
2020-07-22 06:00:00 22.4 4 Sudoeste 18 Oeste 0 -- -- 79
2020-07-22 05:00:00 22.5 12 Oeste 21 Oeste 0 -- -- 80
2020-07-22 04:00:00 23 9 Oeste 27 Oeste 0 -- -- 77
2020-07-22 03:00:00 23.8 14 Oeste 27 Oeste 0 -- -- 75
2020-07-22 02:00:00 24.8 10 Oeste 20 Oeste 0 -- -- 71
2020-07-22 01:00:00 25.8 10 Sudoeste 17 Oeste 0 -- -- 67
2020-07-22 00:00:00 26.7 10 Sudoeste 20 Sudoeste 0 -- -- 63
2020-07-21 23:00:00 27.6 12 Sudoeste 24 Sudoeste 0 -- -- 60
2020-07-21 22:00:00 29 11 Sudoeste -- -- -- -- -- 55
2020-07-21 21:00:00 -- -- -- -- -- -- -- -- --
2020-07-21 20:00:00 -- -- -- -- -- -- -- -- --
2020-07-21 19:00:00 -- -- -- -- -- -- -- -- --
2020-07-21 18:00:00 -- -- -- -- -- -- -- -- --
2020-07-21 17:00:00 -- -- -- -- -- -- -- -- --
2020-07-21 16:00:00 -- -- -- -- -- -- -- -- --
2020-07-21 15:00:00 -- -- -- -- -- -- -- -- --
2020-07-21 14:00:00 -- -- -- -- -- -- -- -- --
2020-07-21 13:00:00 -- -- -- -- -- -- -- -- --
2020-07-21 12:00:00 -- -- -- -- -- -- -- -- --
2020-07-21 11:00:00 -- -- -- -- -- -- -- -- --
2020-07-21 10:00:00 -- -- -- -- -- -- -- -- --
2020-07-21 09:00:00 22.2 5 Sudoeste 10 Sudoeste 0 -- -- 66
2020-07-21 08:00:00 20.5 2 Noroeste 5 Noroeste 0 -- -- 66
2020-07-21 07:00:00 21.7 0 Calma 10 Nordeste 0 -- -- 63
2020-07-21 06:00:00 22.7 3 Noroeste 9 Norte 0 -- -- 63
2020-07-21 05:00:00 23.5 2 Sudoeste 9 Este 0 -- -- 60
2020-07-21 04:00:00 25.4 5 Oeste 18 Sudeste 0 -- -- 59
2020-07-21 03:00:00 28.5 9 Sudeste 35 Sur 0 -- -- 40
2020-07-21 02:00:00 28.8 12 Sur 27 Sudeste 0 -- -- 40
2020-07-21 01:00:00 29 12 Sudoeste 24 Sudoeste 0 -- -- 39
2020-07-21 00:00:00 28.6 0 Calma 12 Este 0 -- -- 38
2020-07-20 23:00:00 32 12 Sudeste 28 Sudeste 0 -- -- 32
2020-07-20 22:00:00 34.1 11 Sudeste 25 Sur 0 -- -- 27
2020-07-20 21:00:00 37.3 15 Sur 26 Sur 0 -- -- 22
2020-07-20 20:00:00 39.9 12 Sudeste 20 Sur 0 -- -- 21
2020-07-20 19:00:00 40.5 12 Este 26 Sudeste 0 -- -- 21
2020-07-20 18:00:00 40.5 12 Este 25 Este 0 -- -- 22
2020-07-20 17:00:00 40.8 10 Este 23 Sudeste 0 -- -- 19
2020-07-20 16:00:00 40.3 10 Sur 28 Sudeste 0 -- -- 21
2020-07-20 15:00:00 38.8 8 Sudeste 26 Sudeste 0 -- -- 27
2020-07-20 14:00:00 37.2 9 Sudeste 30 Este 0 -- -- 31
2020-07-20 13:00:00 35.1 10 Sudeste 24 Este 0 -- -- 36
2020-07-20 12:00:00 33.9 9 Sudeste 17 Este 0 -- -- 39
2020-07-20 11:00:00 31 9 Nordeste 15 Nordeste 0 -- -- 46
2020-07-20 10:00:00 27.6 3 Sur 6 Este 0 -- -- 51
2020-07-20 09:00:00 21.9 0 Calma 3 Sudeste 0 -- -- 56
2020-07-20 08:00:00 17.2 0 Calma 6 Noroeste 0 -- -- 66
2020-07-20 07:00:00 16.9 0 Calma 4 Norte 0 -- -- 64
2020-07-20 06:00:00 17.6 0 Calma 4 Norte 0 -- -- 61
2020-07-20 05:00:00 18.2 5 Noroeste 7 Norte 0 -- -- 62
2020-07-20 04:00:00 19.3 0 Calma 6 Norte 0 -- -- 59
2020-07-20 03:00:00 20.1 2 Sudoeste 6 Noroeste 0 -- -- 55
2020-07-20 02:00:00 21.6 5 Norte 8 Norte 0 -- -- 53
2020-07-20 01:00:00 23.4 0 Calma 8 Noroeste 0 -- -- 47
2020-07-20 00:00:00 25.9 3 Oeste 8 Oeste 0 -- -- 43
2020-07-19 23:00:00 30.4 8 Oeste 18 Oeste 0 -- -- 34
2020-07-19 22:00:00 32.8 11 Sudoeste 23 Oeste 0 -- -- 33
2020-07-19 21:00:00 35 15 Sudoeste 31 Sudoeste 0 -- -- 30
2020-07-19 20:00:00 36.7 17 Sudoeste 31 Sudoeste 0 -- -- 26
2020-07-19 19:00:00 37.7 17 Sudoeste 28 Oeste 0 -- -- 26
2020-07-19 18:00:00 38.4 14 Oeste 31 Sur 0 -- -- 25
2020-07-19 17:00:00 37.8 17 Sudoeste 29 Sudoeste 0 -- -- 27
2020-07-19 16:00:00 37.6 13 Sur 28 Sudoeste 0 -- -- 29
2020-07-19 15:00:00 36 13 Sudoeste 24 Sudoeste 0 -- -- 35
2020-07-19 14:00:00 34.9 12 Sudoeste 22 Sudoeste 0 -- -- 35
2020-07-19 13:00:00 33.2 10 Sudoeste 18 Sudoeste 0 -- -- 41
2020-07-19 12:00:00 31.3 8 Sudoeste 16 Oeste 0 -- -- 44
2020-07-19 11:00:00 28.4 10 Oeste 18 Oeste 0 -- -- 55
2020-07-19 10:00:00 26.2 10 Oeste 16 Oeste 0 -- -- 64
2020-07-19 09:00:00 23.4 2 Norte 4 Norte 0 -- -- 71
2020-07-19 08:00:00 19.6 0 Calma 5 Norte 0 -- -- 74
2020-07-19 07:00:00 19.2 0 Calma 5 Noroeste 0 -- -- 71
2020-07-19 06:00:00 19.8 4 Norte 6 Norte 0 -- -- 69
2020-07-19 05:00:00 21 3 Nordeste 6 Nordeste 0 -- -- 67
2020-07-19 04:00:00 21.9 4 Noroeste 6 Oeste 0 -- -- 64
2020-07-19 03:00:00 23.3 3 Norte 9 Sudoeste 0 -- -- 58
2020-07-19 02:00:00 25.6 4 Sur 8 Norte 0 -- -- 50
2020-07-19 01:00:00 28.5 6 Oeste 16 Oeste 0 -- -- 43
2020-07-19 00:00:00 29.3 10 Oeste 20 Oeste 0 -- -- 43
2020-07-18 23:00:00 30.7 10 Oeste 24 Oeste 0 -- -- 43
2020-07-18 22:00:00 31.8 15 Oeste 31 Sudoeste 0 -- -- 41
2020-07-18 21:00:00 33.5 19 Sudoeste 37 Sudoeste 0 -- -- 38
2020-07-18 20:00:00 34.9 22 Sudoeste 37 Sudoeste 0 -- -- 35
2020-07-18 19:00:00 36.5 20 Sudoeste 37 Sudoeste 0 -- -- 32
2020-07-18 18:00:00 36.9 21 Sudoeste 34 Sudoeste 0 -- -- 32
2020-07-18 17:00:00 37.2 17 Sudoeste 31 Sudoeste 0 -- -- 32
2020-07-18 16:00:00 36.8 16 Sudoeste 31 Sur 0 -- -- 31
2020-07-18 15:00:00 36.2 16 Sudoeste 28 Sur 0 -- -- 32
2020-07-18 14:00:00 35.1 11 Sudoeste 21 Sur 0 -- -- 35
2020-07-18 13:00:00 33.9 9 Sur 17 Sur 0 -- -- 39
2020-07-18 12:00:00 31.3 5 Sudoeste 13 Oeste 0 -- -- 44
2020-07-18 11:00:00 29.2 3 Sudeste 11 Sudoeste 0 -- -- 48
2020-07-18 10:00:00 27.4 8 Sur 12 Sur 0 -- -- 55
2020-07-18 09:00:00 24.6 0 Calma 4 Este 0 -- -- 62
2020-07-18 08:00:00 19.9 0 Calma 4 Norte 0 -- -- 70
2020-07-18 07:00:00 19.7 0 Calma 6 Noroeste 0 -- -- 68
2020-07-18 06:00:00 21 4 Norte 5 Noroeste 0 -- -- 64
2020-07-18 05:00:00 23.2 2 Sur 9 Oeste 0 -- -- 59
2020-07-18 04:00:00 25.2 6 Oeste 12 Sudoeste 0 -- -- 55
2020-07-18 03:00:00 27.3 9 Sudoeste 26 Oeste 0 -- -- 50
2020-07-18 02:00:00 26.2 5 Sudoeste 13 Sudoeste 0 -- -- 51
2020-07-18 01:00:00 28 5 Sudoeste 15 Oeste 0 -- -- 45
2020-07-18 00:00:00 31.3 11 Oeste 21 Sudoeste 0 -- -- 39
2020-07-17 23:00:00 32.5 11 Oeste 25 Oeste 0 -- -- 36
2020-07-17 22:00:00 34.3 16 Oeste 29 Oeste -- -- -- 33
2020-07-17 21:00:00 36.9 12 Oeste 24 Sudoeste 0 -- -- 26
2020-07-17 20:00:00 39 13 Sudoeste 21 Sudoeste 0 -- -- 24
2020-07-17 19:00:00 39.9 12 Sudoeste 24 Sudoeste 0 -- -- 22
2020-07-17 18:00:00 40.5 12 Sur 27 Sudoeste 0 -- -- 22
2020-07-17 17:00:00 40.1 8 Sudoeste 22 Sudeste 0 -- -- 22
2020-07-17 16:00:00 39.2 7 Sudeste 24 Este 0 -- -- 23
2020-07-17 15:00:00 38.3 10 Sudeste 27 Sur 0 -- -- 24
2020-07-17 14:00:00 36.2 10 Sudeste 22 Sudeste 0 -- -- 27
2020-07-17 13:00:00 34.2 8 Este 19 Este 0 -- -- 28
2020-07-17 12:00:00 32.8 7 Sudeste 23 Este 0 -- -- 32
2020-07-17 11:00:00 31.2 9 Sudeste 16 Sudeste 0 -- -- 32
2020-07-17 10:00:00 29.1 5 Este 12 Este 0 -- -- 35
2020-07-17 09:00:00 23.4 0 Calma -- -- 0 -- -- 49
2020-07-17 08:00:00 18.3 0 Calma 2 Oeste 0 -- -- 59
2020-07-17 07:00:00 17.9 0 Calma 3 Norte 0 -- -- 56
2020-07-17 06:00:00 19.2 0 Calma 3 Sur 0 -- -- 52
2020-07-17 05:00:00 20.5 3 Norte 5 Norte 0 -- -- 48
2020-07-17 04:00:00 22.8 5 Nordeste 9 Este 0 -- -- 42
2020-07-17 03:00:00 23.6 3 Este 8 Este 0 -- -- 40
2020-07-17 02:00:00 26.2 6 Nordeste 14 Este 0 -- -- 37
2020-07-17 01:00:00 26.6 6 Este 15 Este 0 -- -- 36
2020-07-17 00:00:00 29.5 7 Sudeste 24 Sur 0 -- -- 31
2020-07-16 23:00:00 30.2 8 Este 12 Este 0 -- -- 28
2020-07-16 22:00:00 32.3 0 Calma 14 Sur 0 -- -- 29
2020-07-16 21:00:00 36.4 6 Sur 21 Sur 0 -- -- 24
2020-07-16 20:00:00 38 12 Sur 21 Sur 0 -- -- 23
2020-07-16 19:00:00 38.9 10 Sur 23 Sur 0 -- -- 24
2020-07-16 18:00:00 38.9 11 Sudeste 22 Sudeste 0 -- -- 26
2020-07-16 17:00:00 38.6 12 Sudeste 24 Este 0 -- -- 27
2020-07-16 16:00:00 37.9 13 Sudeste 30 Sudeste 0 -- -- 27
2020-07-16 15:00:00 37.1 13 Sur 27 Este 0 -- -- 28
2020-07-16 14:00:00 35.6 14 Sudeste 31 Sudeste 0 -- -- 33
2020-07-16 13:00:00 33.5 12 Este 26 Este 0 -- -- 37
2020-07-16 12:00:00 31.8 10 Este 25 Este 0 -- -- 41
2020-07-16 11:00:00 30.2 11 Nordeste 18 Nordeste 0 -- -- 43
2020-07-16 10:00:00 27.6 8 Nordeste 12 Nordeste 0 -- -- 47
2020-07-16 09:00:00 24.5 3 Este 5 Este 0 -- -- 51
2020-07-16 08:00:00 19.3 3 Sudoeste 5 Sur 0 -- -- 64
2020-07-16 07:00:00 19.1 0 Calma 3 Sudoeste 0 -- -- 60
2020-07-16 06:00:00 21.4 0 Calma 11 Nordeste 0 -- -- 57
2020-07-16 05:00:00 22.4 6 Nordeste 9 Nordeste 0 -- -- 51
2020-07-16 04:00:00 23.6 6 Nordeste 10 Este 0 -- -- 54
2020-07-16 03:00:00 25.1 4 Nordeste 16 Este 0 -- -- 51
2020-07-16 02:00:00 23.9 10 Este 15 Este 0 -- -- 50
2020-07-16 01:00:00 26 0 Calma 11 Este 0 -- -- 44
2020-07-16 00:00:00 27.8 8 Este 16 Sudeste 0 -- -- 39
2020-07-15 23:00:00 30 8 Sur 18 Sudeste 0 -- -- 33
2020-07-15 22:00:00 31.2 0 Calma 10 Sur 0 -- -- 33
2020-07-15 21:00:00 34.9 6 Sur 16 Sur 0 -- -- 29
2020-07-15 20:00:00 36.4 9 Sur 22 Sudeste 0 -- -- 29
2020-07-15 19:00:00 37.4 11 Sur 26 Sur 0 -- -- 29
2020-07-15 18:00:00 37.4 10 Este 22 Sudeste 0 -- -- 28
2020-07-15 17:00:00 37.2 15 Sudeste 25 Este 0 -- -- 30
2020-07-15 16:00:00 36.6 11 Sur 24 Sudeste 0 -- -- 29
2020-07-15 15:00:00 35.1 9 Sudeste 27 Este 0 -- -- 32
2020-07-15 14:00:00 33.5 12 Este 30 Este 0 -- -- 36
2020-07-15 13:00:00 31.7 12 Este 26 Sudeste 0 -- -- 42
2020-07-15 12:00:00 30.4 10 Este 29 Este 0 -- -- 46
2020-07-15 11:00:00 28.7 15 Este 27 Este 0 -- -- 50
2020-07-15 10:00:00 27.1 11 Este 19 Este 0 -- -- 53
2020-07-15 09:00:00 24.6 4 Este 8 Nordeste 0 -- -- 62
2020-07-15 08:00:00 18.8 3 Este 7 Nordeste 0 -- -- 76
2020-07-15 07:00:00 18 0 Calma 4 Norte 0 -- -- 73
2020-07-15 06:00:00 19 2 Oeste 5 Norte 0 -- -- 70
2020-07-15 05:00:00 20.3 2 Oeste 4 Noroeste 0 -- -- 67
2020-07-15 04:00:00 22 0 Calma 9 Este 0 -- -- 64
2020-07-15 03:00:00 23.2 6 Este 19 Sudoeste 0 -- -- 61
2020-07-15 02:00:00 25.5 13 Sudoeste 24 Sudoeste 0 -- -- 54
2020-07-15 01:00:00 26.9 7 Sur 22 Sudoeste 0 -- -- 44
2020-07-15 00:00:00 28.6 10 Sudoeste 20 Sudoeste 0 -- -- 39